Time;durP1;ratioP1;P1;durP2;ratioP2;P2;SDS_P1;SDS_P2;PMS_P1;PMS_P2;Temp;Humidity;BMP_temperature;BMP_pressure;BME280_temperature;BME280_humidity;BME280_pressure;Samples;Min_cycle;Max_cycle;Signal;HPM_P1;HPM_P2
2022/06/05 00:00:18;;;;;;;9.67;6.00;;;;;;;;;;5113979;28;20485;-76
2022/06/05 00:02:59;;;;;;;7.40;5.43;;;;;;;;;;5114045;28;20453;-76
2022/06/05 00:05:28;;;;;;;7.30;6.07;;;;;;;;;;5114038;28;20446;-76
2022/06/05 00:07:58;;;;;;;5.70;4.90;;;;;;;;;;5113963;27;20430;-76
2022/06/05 00:10:28;;;;;;;6.80;5.50;;;;;;;;;;5114059;27;20488;-76
2022/06/05 00:12:59;;;;;;;4.90;4.23;;;;;;;;;;5114180;28;20931;-76
2022/06/05 00:15:27;;;;;;;6.10;5.53;;;;;;;;;;5113612;28;20447;-76
2022/06/05 00:17:55;;;;;;;7.37;6.67;;;;;;;;;;5113879;28;20502;-76
2022/06/05 00:20:23;;;;;;;9.50;5.60;;;;;;;;;;5113661;28;20461;-76
2022/06/05 00:22:50;;;;;;;5.93;5.40;;;;;;;;;;5105199;27;20489;-76
2022/06/05 00:25:17;;;;;;;9.03;5.83;;;;;;;;;;5093030;28;20450;-76
2022/06/05 00:27:48;;;;;;;8.37;5.57;;;;;;;;;;5098345;28;20932;-76
2022/06/05 00:30:21;;;;;;;7.23;6.07;;;;;;;;;;5092795;28;20999;-76
2022/06/05 00:32:50;;;;;;;6.83;5.90;;;;;;;;;;5092105;28;20453;-76
2022/06/05 00:35:21;;;;;;;5.80;5.20;;;;;;;;;;5092115;28;21010;-76
2022/06/05 00:37:52;;;;;;;6.20;5.63;;;;;;;;;;5093074;28;20534;-76
2022/06/05 00:40:29;;;;;;;6.33;5.77;;;;;;;;;;5092979;28;20466;-76
2022/06/05 00:42:58;;;;;;;8.23;6.77;;;;;;;;;;5093176;28;20466;-76
2022/06/05 00:45:27;;;;;;;10.07;8.27;;;;;;;;;;5092890;28;20455;-76
2022/06/05 00:47:55;;;;;;;11.50;7.07;;;;;;;;;;5093089;28;20486;-76
2022/06/05 00:50:25;;;;;;;9.07;7.50;;;;;;;;;;5092963;28;20462;-76
2022/06/05 00:52:55;;;;;;;9.03;8.20;;;;;;;;;;5093115;28;20453;-76
2022/06/05 00:55:23;;;;;;;16.00;12.20;;;;;;;;;;5092888;28;20463;-76
2022/06/05 00:57:51;;;;;;;16.60;12.07;;;;;;;;;;5092635;28;20453;-76
2022/06/05 01:00:19;;;;;;;17.63;11.30;;;;;;;;;;5092880;28;20971;-76
2022/06/05 01:02:48;;;;;;;15.00;12.03;;;;;;;;;;5093026;28;20817;-76
2022/06/05 01:05:16;;;;;;;17.53;12.73;;;;;;;;;;5092668;28;20454;-76
2022/06/05 01:07:45;;;;;;;13.73;11.77;;;;;;;;;;5095171;28;21003;-75
2022/06/05 01:10:12;;;;;;;13.43;11.47;;;;;;;;;;5096753;28;20604;-76
2022/06/05 01:12:44;;;;;;;16.10;11.93;;;;;;;;;;5096978;28;20985;-76
2022/06/05 01:15:16;;;;;;;11.77;10.57;;;;;;;;;;5096679;28;20454;-76
2022/06/05 01:17:48;;;;;;;11.73;10.23;;;;;;;;;;5096959;28;21023;-76
2022/06/05 01:20:21;;;;;;;12.00;10.50;;;;;;;;;;5096739;28;20851;-76
2022/06/05 01:22:58;;;;;;;11.33;9.73;;;;;;;;;;5096921;28;20450;-76
2022/06/05 01:25:36;;;;;;;9.80;8.57;;;;;;;;;;5096655;28;20814;-76
2022/06/05 01:28:06;;;;;;;14.80;9.13;;;;;;;;;;5096563;28;20481;-76
2022/06/05 01:30:36;;;;;;;11.03;8.20;;;;;;;;;;5096635;28;20475;-76
2022/06/05 01:33:06;;;;;;;14.97;7.80;;;;;;;;;;5096569;28;20443;-76
2022/06/05 01:35:37;;;;;;;14.37;8.07;;;;;;;;;;5096427;28;20450;-76
2022/06/05 01:38:05;;;;;;;9.70;7.40;;;;;;;;;;5096584;28;20810;-76
2022/06/05 01:40:33;;;;;;;8.40;7.50;;;;;;;;;;5096465;28;20462;-76
2022/06/05 01:43:07;;;;;;;9.27;7.70;;;;;;;;;;5096428;28;20455;-76
2022/06/05 01:45:37;;;;;;;16.80;7.70;;;;;;;;;;5096200;28;20448;-76
2022/06/05 01:48:06;;;;;;;8.30;7.33;;;;;;;;;;5096286;28;20486;-76
2022/06/05 01:50:38;;;;;;;8.67;7.20;;;;;;;;;;5096327;28;20877;-76
2022/06/05 01:53:08;;;;;;;12.87;6.63;;;;;;;;;;5096383;28;20446;-76
2022/06/05 01:55:36;;;;;;;6.93;6.23;;;;;;;;;;5096209;28;20454;-76
2022/06/05 01:58:06;;;;;;;6.20;5.60;;;;;;;;;;5095519;28;20461;-76
2022/06/05 02:00:34;;;;;;;8.90;6.77;;;;;;;;;;5096117;28;20479;-76
2022/06/05 02:03:03;;;;;;;8.60;5.90;;;;;;;;;;5096230;28;20457;-76
2022/06/05 02:05:32;;;;;;;8.47;6.73;;;;;;;;;;5095708;28;20447;-76
2022/06/05 02:08:01;;;;;;;7.07;5.97;;;;;;;;;;5095787;28;20532;-75
2022/06/05 02:10:32;;;;;;;7.93;6.40;;;;;;;;;;5095736;28;20561;-75
2022/06/05 02:12:59;;;;;;;8.27;6.57;;;;;;;;;;5095752;28;20451;-75
2022/06/05 02:15:29;;;;;;;8.30;6.30;;;;;;;;;;5095654;28;20449;-76
2022/06/05 02:17:57;;;;;;;9.77;6.40;;;;;;;;;;5095350;28;20450;-76
2022/06/05 02:20:24;;;;;;;8.07;6.77;;;;;;;;;;5095831;28;20462;-76
2022/06/05 02:22:52;;;;;;;7.70;6.30;;;;;;;;;;5095534;28;20451;-76
2022/06/05 02:25:20;;;;;;;10.93;6.87;;;;;;;;;;5095354;28;20450;-76
2022/06/05 02:27:47;;;;;;;7.27;6.57;;;;;;;;;;5095602;28;20911;-76
2022/06/05 02:30:16;;;;;;;10.00;8.50;;;;;;;;;;5095368;28;20477;-76
2022/06/05 02:32:54;;;;;;;12.20;8.33;;;;;;;;;;5095477;28;20865;-76
2022/06/05 02:35:27;;;;;;;11.77;8.00;;;;;;;;;;5095122;28;20459;-76
2022/06/05 02:37:59;;;;;;;18.37;9.97;;;;;;;;;;5095418;28;20451;-75
2022/06/05 02:40:28;;;;;;;14.60;8.50;;;;;;;;;;5095313;28;20902;-76
2022/06/05 02:42:58;;;;;;;13.77;8.13;;;;;;;;;;5095374;28;20462;-76
2022/06/05 02:45:27;;;;;;;10.97;7.73;;;;;;;;;;5095255;28;20450;-75
2022/06/05 02:47:59;;;;;;;9.10;7.57;;;;;;;;;;5094918;28;20490;-76
2022/06/05 02:50:28;;;;;;;11.17;8.30;;;;;;;;;;5095235;28;20470;-75
2022/06/05 02:53:00;;;;;;;10.67;8.67;;;;;;;;;;5095155;28;20450;-75
2022/06/05 02:55:27;;;;;;;13.27;9.17;;;;;;;;;;5094786;28;20442;-75
2022/06/05 02:57:55;;;;;;;11.57;9.10;;;;;;;;;;5094611;28;20451;-75
2022/06/05 03:00:23;;;;;;;19.17;12.43;;;;;;;;;;5094858;28;20477;-76
2022/06/05 03:05:38;;;;;;;18.87;16.10;;;;;;;;;;5094792;28;20418;-76
2022/06/05 03:08:05;;;;;;;23.83;15.00;;;;;;;;;;5094644;28;20860;-75
2022/06/05 03:10:33;;;;;;;23.40;16.10;;;;;;;;;;5094671;28;20474;-75
2022/06/05 03:13:01;;;;;;;20.23;15.47;;;;;;;;;;5094599;28;20458;-76
2022/06/05 03:15:28;;;;;;;31.97;17.60;;;;;;;;;;5094222;28;20948;-76
2022/06/05 03:17:55;;;;;;;22.10;14.00;;;;;;;;;;5094870;28;20819;-75
2022/06/05 03:20:23;;;;;;;18.43;13.60;;;;;;;;;;5094384;28;20839;-75
2022/06/05 03:22:52;;;;;;;15.60;11.83;;;;;;;;;;5094406;28;20458;-75
2022/06/05 03:25:20;;;;;;;13.63;10.77;;;;;;;;;;5094097;28;20459;-76
2022/06/05 03:27:48;;;;;;;13.40;11.37;;;;;;;;;;5094277;28;20497;-76
2022/06/05 03:30:15;;;;;;;12.83;10.20;;;;;;;;;;5093358;28;20497;-75
2022/06/05 03:32:42;;;;;;;12.10;8.53;;;;;;;;;;5094382;28;20447;-75
2022/06/05 03:35:10;;;;;;;10.80;9.70;;;;;;;;;;5093947;28;20458;-75
2022/06/05 03:37:37;;;;;;;12.30;9.30;;;;;;;;;;5094222;28;20446;-75
2022/06/05 03:40:08;;;;;;;10.10;8.73;;;;;;;;;;5094033;28;20473;-75
2022/06/05 03:42:35;;;;;;;12.43;9.40;;;;;;;;;;5093980;28;20466;-75
2022/06/05 03:45:02;;;;;;;15.53;9.90;;;;;;;;;;5093973;28;20446;-75
2022/06/05 03:47:29;;;;;;;14.73;8.90;;;;;;;;;;5093940;28;20550;-75
2022/06/05 03:49:56;;;;;;;13.83;9.87;;;;;;;;;;5093918;28;20467;-75
2022/06/05 03:52:23;;;;;;;11.73;9.00;;;;;;;;;;5094014;28;20461;-76
2022/06/05 03:54:50;;;;;;;12.93;9.77;;;;;;;;;;5093686;28;20450;-75
2022/06/05 03:57:19;;;;;;;9.80;8.83;;;;;;;;;;5093328;28;20814;-75
2022/06/05 03:59:48;;;;;;;11.67;8.73;;;;;;;;;;5093905;28;20451;-75
2022/06/05 04:02:15;;;;;;;13.67;9.07;;;;;;;;;;5093902;28;20895;-75
2022/06/05 04:04:42;;;;;;;14.20;9.20;;;;;;;;;;5093546;28;20940;-75
2022/06/05 04:07:10;;;;;;;10.80;9.23;;;;;;;;;;5093493;28;20485;-75
2022/06/05 04:09:37;;;;;;;10.43;9.33;;;;;;;;;;5093489;28;20451;-75
2022/06/05 04:12:04;;;;;;;12.00;8.20;;;;;;;;;;5093706;28;20843;-75
2022/06/05 04:14:33;;;;;;;13.10;8.87;;;;;;;;;;5093465;28;20450;-75
2022/06/05 04:17:00;;;;;;;8.90;7.73;;;;;;;;;;5093679;28;20449;-75
2022/06/05 04:19:27;;;;;;;9.83;7.33;;;;;;;;;;5093363;28;20834;-75
2022/06/05 04:21:54;;;;;;;9.67;7.17;;;;;;;;;;5093257;28;20481;-76
2022/06/05 04:24:21;;;;;;;10.27;8.50;;;;;;;;;;5093086;28;20463;-75
2022/06/05 04:26:48;;;;;;;8.50;7.20;;;;;;;;;;5093391;28;20457;-75
2022/06/05 04:29:16;;;;;;;12.53;9.63;;;;;;;;;;5093226;28;20849;-75
2022/06/05 04:31:47;;;;;;;18.10;8.40;;;;;;;;;;5093308;28;20983;-75
2022/06/05 04:34:15;;;;;;;13.10;9.80;;;;;;;;;;5092964;28;20454;-76
2022/06/05 04:36:42;;;;;;;16.30;9.40;;;;;;;;;;5093164;28;20550;-75
2022/06/05 04:39:09;;;;;;;14.30;10.17;;;;;;;;;;5093180;28;20458;-75
2022/06/05 04:41:37;;;;;;;15.50;9.43;;;;;;;;;;5092835;28;20467;-75
2022/06/05 04:44:05;;;;;;;13.03;8.87;;;;;;;;;;5092955;28;20451;-75
2022/06/05 04:46:33;;;;;;;9.93;7.57;;;;;;;;;;5093061;28;20455;-75
2022/06/05 04:49:02;;;;;;;14.13;8.50;;;;;;;;;;5093012;28;20843;-76
2022/06/05 04:51:29;;;;;;;8.03;7.17;;;;;;;;;;5093096;28;20937;-76
2022/06/05 04:53:57;;;;;;;7.50;6.80;;;;;;;;;;5092965;28;20451;-76
2022/06/05 04:56:25;;;;;;;10.63;7.10;;;;;;;;;;5092719;28;20479;-75
2022/06/05 04:58:53;;;;;;;10.50;6.97;;;;;;;;;;5093113;28;20946;-75
2022/06/05 05:01:21;;;;;;;8.67;6.73;;;;;;;;;;5092821;28;20931;-76
2022/06/05 05:03:48;;;;;;;8.13;6.30;;;;;;;;;;5092836;28;20843;-76
2022/06/05 05:06:17;;;;;;;7.40;6.80;;;;;;;;;;5092849;28;20463;-76
2022/06/05 05:08:44;;;;;;;7.90;7.00;;;;;;;;;;5093003;28;20487;-75
2022/06/05 05:11:11;;;;;;;6.97;6.37;;;;;;;;;;5092710;28;20478;-76
2022/06/05 05:13:39;;;;;;;6.43;5.83;;;;;;;;;;5092861;28;20959;-76
2022/06/05 05:16:06;;;;;;;8.43;6.80;;;;;;;;;;5092647;28;20459;-76
2022/06/05 05:18:33;;;;;;;7.53;6.77;;;;;;;;;;5092906;28;20455;-76
2022/06/05 05:21:05;;;;;;;7.13;5.90;;;;;;;;;;5092791;28;20471;-76
2022/06/05 05:23:33;;;;;;;9.00;6.43;;;;;;;;;;5092697;28;20503;-76
2022/06/05 05:26:07;;;;;;;6.63;6.13;;;;;;;;;;5092879;28;20942;-76
2022/06/05 05:28:34;;;;;;;6.23;5.63;;;;;;;;;;5092883;28;20854;-76
2022/06/05 05:31:02;;;;;;;6.90;6.30;;;;;;;;;;5092624;28;20459;-75
2022/06/05 05:33:29;;;;;;;5.30;4.90;;;;;;;;;;5092619;28;20462;-76
2022/06/05 05:35:56;;;;;;;6.03;5.43;;;;;;;;;;5092703;28;20434;-76
2022/06/05 05:38:23;;;;;;;6.40;5.70;;;;;;;;;;5092577;28;20959;-76
2022/06/05 05:43:36;;;;;;;7.00;6.30;;;;;;;;;;5091022;28;20442;-72
2022/06/05 05:46:03;;;;;;;6.70;6.10;;;;;;;;;;5091298;28;20450;-73
2022/06/05 05:48:30;;;;;;;7.73;6.93;;;;;;;;;;5090346;28;20483;-73
2022/06/05 05:50:57;;;;;;;7.20;6.50;;;;;;;;;;5091468;28;20481;-73
2022/06/05 05:53:25;;;;;;;7.40;6.70;;;;;;;;;;5092856;28;20469;-72
2022/06/05 05:55:53;;;;;;;8.10;6.77;;;;;;;;;;5094543;28;20479;-73
2022/06/05 05:58:21;;;;;;;7.70;7.00;;;;;;;;;;5094316;28;20450;-73
2022/06/05 06:00:48;;;;;;;7.00;6.40;;;;;;;;;;5094783;28;20477;-73
2022/06/05 06:03:15;;;;;;;7.60;6.80;;;;;;;;;;5094347;28;20458;-73
2022/06/05 06:05:42;;;;;;;5.60;5.10;;;;;;;;;;5094848;28;21027;-73
2022/06/05 06:08:09;;;;;;;6.03;5.53;;;;;;;;;;5094439;28;20991;-73
2022/06/05 06:10:36;;;;;;;6.93;5.20;;;;;;;;;;5094495;28;20850;-73
2022/06/05 06:13:05;;;;;;;5.30;4.90;;;;;;;;;;5094568;28;20458;-72
2022/06/05 06:15:32;;;;;;;5.63;5.10;;;;;;;;;;5094472;28;20453;-73
2022/06/05 06:17:59;;;;;;;5.40;4.90;;;;;;;;;;5094258;28;20443;-74
2022/06/05 06:20:27;;;;;;;5.33;4.83;;;;;;;;;;5094293;28;20475;-73
2022/06/05 06:22:54;;;;;;;5.17;4.77;;;;;;;;;;5094317;28;20538;-73
2022/06/05 06:25:21;;;;;;;5.50;5.00;;;;;;;;;;5093703;28;20447;-74
2022/06/05 06:27:48;;;;;;;7.57;5.37;;;;;;;;;;5094021;28;20457;-73
2022/06/05 06:30:17;;;;;;;5.17;4.77;;;;;;;;;;5093719;28;20467;-73
2022/06/05 06:32:44;;;;;;;5.30;4.90;;;;;;;;;;5112138;28;20466;-73
2022/06/05 06:35:11;;;;;;;5.10;4.70;;;;;;;;;;5115279;28;20823;-73
2022/06/05 06:37:38;;;;;;;7.67;5.33;;;;;;;;;;5115801;28;20453;-73
2022/06/05 06:40:06;;;;;;;5.70;5.03;;;;;;;;;;5115500;28;20986;-73
2022/06/05 06:42:33;;;;;;;5.47;4.60;;;;;;;;;;5115670;28;20934;-73
2022/06/05 06:45:01;;;;;;;5.33;4.83;;;;;;;;;;5115494;28;20528;-73
2022/06/05 06:47:30;;;;;;;6.80;4.67;;;;;;;;;;5115469;28;20457;-73
2022/06/05 06:49:57;;;;;;;5.77;5.27;;;;;;;;;;5115435;28;20867;-73
2022/06/05 06:52:24;;;;;;;5.03;4.50;;;;;;;;;;5115485;28;20446;-73
2022/06/05 06:54:51;;;;;;;7.07;5.30;;;;;;;;;;5115252;28;20938;-73
2022/06/05 06:57:18;;;;;;;5.60;5.10;;;;;;;;;;5114901;28;20468;-73
2022/06/05 06:59:46;;;;;;;7.23;4.97;;;;;;;;;;5115338;28;20452;-73
2022/06/05 07:02:13;;;;;;;5.83;5.27;;;;;;;;;;5115129;28;20452;-73
2022/06/05 07:04:41;;;;;;;7.90;5.80;;;;;;;;;;5113815;27;20966;-74
2022/06/05 07:07:09;;;;;;;6.60;6.00;;;;;;;;;;5102430;28;20457;-73
2022/06/05 07:09:36;;;;;;;7.83;6.63;;;;;;;;;;5114668;28;20489;-73
2022/06/05 07:12:03;;;;;;;6.90;6.23;;;;;;;;;;5115145;27;20954;-73
2022/06/05 07:14:30;;;;;;;6.20;5.53;;;;;;;;;;5114764;28;20453;-74
2022/06/05 07:16:57;;;;;;;6.17;5.57;;;;;;;;;;5114643;28;20460;-73
2022/06/05 07:19:24;;;;;;;6.10;5.27;;;;;;;;;;5115004;28;20434;-73
2022/06/05 07:21:53;;;;;;;7.07;6.47;;;;;;;;;;5114888;28;20478;-73
2022/06/05 07:24:20;;;;;;;6.87;5.43;;;;;;;;;;5114355;28;20460;-74
2022/06/05 07:26:48;;;;;;;7.80;6.40;;;;;;;;;;5114810;27;20456;-73
2022/06/05 07:29:15;;;;;;;5.57;4.97;;;;;;;;;;5114376;28;20973;-74
2022/06/05 07:31:42;;;;;;;5.87;5.17;;;;;;;;;;5114503;28;20466;-73
2022/06/05 07:34:10;;;;;;;6.13;4.97;;;;;;;;;;5114231;28;20457;-73
2022/06/05 07:36:38;;;;;;;5.53;5.13;;;;;;;;;;5113314;28;20474;-73
2022/06/05 07:39:06;;;;;;;5.97;5.37;;;;;;;;;;5114301;28;20801;-73
2022/06/05 07:41:36;;;;;;;5.07;4.67;;;;;;;;;;5114290;28;20470;-73
2022/06/05 07:44:03;;;;;;;5.50;5.00;;;;;;;;;;5113977;28;20965;-73
2022/06/05 07:46:30;;;;;;;8.30;6.17;;;;;;;;;;5114430;28;20441;-73
2022/06/05 07:48:57;;;;;;;5.67;5.10;;;;;;;;;;5114057;28;20490;-73
2022/06/05 07:54:30;;;;;;;6.10;5.60;;;;;;;;;;5113797;28;20506;-74
2022/06/05 07:56:58;;;;;;;5.20;4.80;;;;;;;;;;5113720;28;20524;-73
2022/06/05 07:59:26;;;;;;;5.40;5.00;;;;;;;;;;5114127;28;20446;-73
2022/06/05 08:01:53;;;;;;;5.53;5.03;;;;;;;;;;5113931;27;20470;-73
2022/06/05 08:04:20;;;;;;;8.00;5.90;;;;;;;;;;5113630;28;20453;-73
2022/06/05 08:06:48;;;;;;;5.97;5.30;;;;;;;;;;5113915;28;20958;-73
2022/06/05 08:09:16;;;;;;;10.53;5.53;;;;;;;;;;5113747;28;20580;-73
2022/06/05 08:11:45;;;;;;;5.80;5.30;;;;;;;;;;5113730;28;20975;-73
2022/06/05 08:14:14;;;;;;;6.87;6.27;;;;;;;;;;5113486;28;20494;-73
2022/06/05 08:16:43;;;;;;;7.40;5.80;;;;;;;;;;5110269;28;20532;-73
2022/06/05 08:19:10;;;;;;;6.40;5.80;;;;;;;;;;5110978;28;20875;-73
2022/06/05 08:21:37;;;;;;;6.67;5.30;;;;;;;;;;5113494;28;20470;-73
2022/06/05 08:24:05;;;;;;;6.50;5.53;;;;;;;;;;5113422;28;20470;-73
2022/06/05 08:26:34;;;;;;;7.40;5.77;;;;;;;;;;5113672;28;20454;-73
2022/06/05 08:29:01;;;;;;;9.37;5.60;;;;;;;;;;5113606;28;20489;-74
2022/06/05 08:31:29;;;;;;;7.60;6.40;;;;;;;;;;5113391;28;20466;-73
2022/06/05 08:33:57;;;;;;;6.97;6.27;;;;;;;;;;5113373;28;20557;-73
2022/06/05 08:36:24;;;;;;;7.30;6.00;;;;;;;;;;5113666;28;20449;-73
2022/06/05 08:41:43;;;;;;;7.90;7.10;;;;;;;;;;5113422;28;20515;-73
2022/06/05 08:44:16;;;;;;;6.20;5.53;;;;;;;;;;5113367;28;20453;-74
2022/06/05 08:46:45;;;;;;;7.80;5.33;;;;;;;;;;5113642;28;20453;-73
2022/06/05 08:49:14;;;;;;;6.53;5.73;;;;;;;;;;5113469;28;20485;-73
2022/06/05 08:51:42;;;;;;;6.80;6.10;;;;;;;;;;5113419;28;20505;-73
2022/06/05 08:54:14;;;;;;;7.10;6.60;;;;;;;;;;5113210;28;20453;-74
2022/06/05 08:56:43;;;;;;;7.13;5.33;;;;;;;;;;5113026;28;20866;-74
2022/06/05 08:59:13;;;;;;;6.13;5.73;;;;;;;;;;5113296;28;20931;-74
2022/06/05 09:01:43;;;;;;;7.00;5.53;;;;;;;;;;5113197;28;20469;-74
2022/06/05 09:04:20;;;;;;;6.73;6.20;;;;;;;;;;5113085;28;20446;-74
2022/06/05 09:06:49;;;;;;;13.13;5.33;;;;;;;;;;5113306;28;20946;-74
2022/06/05 09:09:18;;;;;;;8.50;6.50;;;;;;;;;;5112961;28;20488;-75
2022/06/05 09:11:50;;;;;;;5.87;5.37;;;;;;;;;;5113138;28;20488;-74
2022/06/05 09:14:25;;;;;;;7.00;6.47;;;;;;;;;;5112506;28;20977;-74
2022/06/05 09:16:54;;;;;;;5.90;5.40;;;;;;;;;;5093156;28;20441;-74
2022/06/05 09:19:25;;;;;;;7.10;6.50;;;;;;;;;;5107947;28;20810;-74
2022/06/05 09:21:53;;;;;;;6.50;5.20;;;;;;;;;;5113180;28;20456;-73
2022/06/05 09:24:23;;;;;;;6.37;5.87;;;;;;;;;;5113033;28;20445;-74
2022/06/05 09:26:54;;;;;;;6.20;5.70;;;;;;;;;;5113150;28;20449;-74
2022/06/05 09:29:26;;;;;;;6.80;6.23;;;;;;;;;;5116703;28;20473;-73
2022/06/05 09:32:16;;;;;;;7.97;6.83;;;;;;;;;;5115623;28;20480;-74
2022/06/05 09:34:47;;;;;;;7.67;6.10;;;;;;;;;;5116851;28;20444;-74
2022/06/05 09:37:17;;;;;;;6.80;6.20;;;;;;;;;;5109260;28;20465;-77
2022/06/05 09:39:46;;;;;;;6.30;5.90;;;;;;;;;;5096613;28;20442;-75
2022/06/05 09:42:21;;;;;;;7.23;6.53;;;;;;;;;;5096237;28;20462;-76
2022/06/05 09:44:53;;;;;;;7.63;6.77;;;;;;;;;;5096100;28;20453;-76
2022/06/05 09:47:24;;;;;;;6.43;5.73;;;;;;;;;;5096039;28;21009;-74
2022/06/05 09:49:54;;;;;;;8.37;7.67;;;;;;;;;;5096544;28;20474;-74
2022/06/05 09:52:24;;;;;;;7.30;5.80;;;;;;;;;;5097780;28;20791;-75
2022/06/05 09:54:55;;;;;;;7.13;6.57;;;;;;;;;;5096481;28;21017;-74
2022/06/05 10:00:28;;;;;;;7.07;6.40;;;;;;;;;;5096425;28;20539;-74
2022/06/05 10:02:59;;;;;;;5.97;5.47;;;;;;;;;;5097536;28;20447;-74
2022/06/05 10:05:28;;;;;;;6.43;5.93;;;;;;;;;;5096227;28;20451;-74
2022/06/05 10:07:58;;;;;;;7.27;6.60;;;;;;;;;;5096381;28;20462;-75
2022/06/05 10:10:26;;;;;;;7.13;5.97;;;;;;;;;;5097046;28;20853;-74
2022/06/05 10:12:58;;;;;;;6.40;5.90;;;;;;;;;;5095816;28;20457;-74
2022/06/05 10:15:26;;;;;;;6.60;6.00;;;;;;;;;;5100518;28;20494;-75
2022/06/05 10:17:56;;;;;;;6.70;5.47;;;;;;;;;;5095669;28;20466;-74
2022/06/05 10:20:39;;;;;;;7.20;6.60;;;;;;;;;;5095786;28;20467;-75
2022/06/05 10:23:12;;;;;;;6.93;6.33;;;;;;;;;;5096660;28;20482;-74
2022/06/05 10:25:45;;;;;;;6.50;6.00;;;;;;;;;;5114204;28;20453;-74
2022/06/05 10:28:18;;;;;;;9.93;6.70;;;;;;;;;;5116033;28;20454;-74
2022/06/05 10:30:54;;;;;;;6.60;6.00;;;;;;;;;;5115741;28;20500;-74
2022/06/05 10:33:24;;;;;;;6.70;6.10;;;;;;;;;;5108953;28;20818;-78
2022/06/05 10:35:54;;;;;;;7.63;6.93;;;;;;;;;;5095570;28;20496;-74
2022/06/05 10:38:37;;;;;;;7.10;6.40;;;;;;;;;;5095272;28;20450;-75
2022/06/05 10:41:12;;;;;;;7.20;5.97;;;;;;;;;;5096223;28;20478;-74
2022/06/05 10:43:41;;;;;;;6.70;6.20;;;;;;;;;;5094917;28;20465;-74
2022/06/05 10:46:09;;;;;;;6.40;5.67;;;;;;;;;;5095126;28;20463;-74
2022/06/05 10:48:49;;;;;;;7.17;6.57;;;;;;;;;;5095289;28;20466;-73
2022/06/05 10:51:22;;;;;;;9.33;7.53;;;;;;;;;;5094504;28;20490;-74
2022/06/05 10:53:53;;;;;;;9.47;6.37;;;;;;;;;;5095113;28;20944;-74
2022/06/05 10:56:25;;;;;;;6.10;5.60;;;;;;;;;;5095075;28;20446;-74
2022/06/05 10:58:57;;;;;;;7.30;6.80;;;;;;;;;;5095074;28;20530;-73
2022/06/05 11:01:39;;;;;;;6.30;5.80;;;;;;;;;;5102314;28;20473;-73
2022/06/05 11:04:12;;;;;;;9.07;7.80;;;;;;;;;;5100340;28;20457;-74
2022/06/05 11:06:44;;;;;;;8.17;6.83;;;;;;;;;;5115437;28;20445;-73
2022/06/05 11:09:19;;;;;;;6.87;6.27;;;;;;;;;;5114587;28;20456;-74
2022/06/05 11:14:41;;;;;;;9.20;6.60;;;;;;;;;;5114974;28;20926;-74
2022/06/05 11:17:24;;;;;;;6.53;5.93;;;;;;;;;;5114961;28;20484;-74
2022/06/05 11:19:55;;;;;;;6.60;6.07;;;;;;;;;;5115077;28;20445;-73
2022/06/05 11:22:23;;;;;;;6.60;5.97;;;;;;;;;;5114964;28;20461;-73
2022/06/05 11:24:51;;;;;;;7.83;7.03;;;;;;;;;;5114774;28;20820;-73
2022/06/05 11:27:27;;;;;;;7.50;6.80;;;;;;;;;;5114633;28;20454;-73
2022/06/05 11:29:59;;;;;;;8.83;6.97;;;;;;;;;;5114701;28;20489;-73
2022/06/05 11:32:33;;;;;;;6.40;5.90;;;;;;;;;;5114801;28;20481;-73
2022/06/05 11:35:03;;;;;;;7.87;7.27;;;;;;;;;;5114611;28;20440;-73
2022/06/05 11:37:45;;;;;;;6.53;5.87;;;;;;;;;;5114543;28;20458;-73
2022/06/05 11:40:19;;;;;;;7.33;6.50;;;;;;;;;;5112166;28;20997;-73
2022/06/05 11:42:48;;;;;;;7.90;6.50;;;;;;;;;;5114534;28;20461;-73
2022/06/05 11:45:27;;;;;;;10.80;9.10;;;;;;;;;;5114313;28;20446;-74
2022/06/05 11:47:59;;;;;;;6.93;6.33;;;;;;;;;;5114504;28;20963;-74
2022/06/05 11:50:29;;;;;;;6.10;5.60;;;;;;;;;;5113614;28;20496;-74
2022/06/05 11:53:03;;;;;;;6.77;6.07;;;;;;;;;;5113923;28;20452;-73
2022/06/05 11:55:33;;;;;;;6.63;6.13;;;;;;;;;;5114157;28;20450;-73
2022/06/05 11:58:02;;;;;;;6.70;6.10;;;;;;;;;;5114102;28;20454;-73
2022/06/05 12:00:35;;;;;;;7.43;6.83;;;;;;;;;;5114174;28;20466;-74
2022/06/05 12:03:04;;;;;;;7.30;6.57;;;;;;;;;;5114135;27;20456;-74
2022/06/05 12:05:38;;;;;;;7.47;6.87;;;;;;;;;;5114129;28;20821;-73
2022/06/05 12:08:08;;;;;;;7.03;6.10;;;;;;;;;;5114220;28;20450;-73
2022/06/05 12:10:37;;;;;;;7.53;6.93;;;;;;;;;;5113816;28;20490;-74
2022/06/05 12:13:11;;;;;;;7.60;6.90;;;;;;;;;;5113988;28;20457;-74
2022/06/05 12:15:44;;;;;;;8.90;8.00;;;;;;;;;;5114004;28;20449;-73
2022/06/05 12:18:17;;;;;;;7.33;5.97;;;;;;;;;;5113868;28;21012;-73
2022/06/05 12:20:46;;;;;;;6.20;5.70;;;;;;;;;;5114079;28;20462;-73
2022/06/05 12:23:19;;;;;;;8.43;5.73;;;;;;;;;;5113759;28;20460;-74
2022/06/05 12:25:50;;;;;;;7.03;6.33;;;;;;;;;;5108420;28;20458;-75
2022/06/05 12:28:19;;;;;;;5.73;5.33;;;;;;;;;;5112238;28;20457;-75
2022/06/05 12:30:51;;;;;;;6.10;5.70;;;;;;;;;;5112152;28;20493;-74
2022/06/05 12:33:20;;;;;;;6.83;6.23;;;;;;;;;;5112080;28;20481;-75
2022/06/05 12:35:50;;;;;;;6.17;5.70;;;;;;;;;;5112061;28;20453;-75
2022/06/05 12:38:33;;;;;;;6.10;5.60;;;;;;;;;;5112260;28;20457;-75
2022/06/05 12:41:05;;;;;;;7.20;6.10;;;;;;;;;;5112128;28;20843;-75
2022/06/05 12:43:39;;;;;;;7.70;6.50;;;;;;;;;;5111940;28;20827;-75
2022/06/05 12:46:13;;;;;;;6.00;5.50;;;;;;;;;;5112051;28;20461;-75
2022/06/05 12:48:41;;;;;;;6.40;5.80;;;;;;;;;;5113470;28;20449;-74
2022/06/05 12:51:12;;;;;;;7.37;6.60;;;;;;;;;;5112884;28;20496;-74
2022/06/05 12:53:43;;;;;;;7.03;6.40;;;;;;;;;;5113336;28;20955;-74
2022/06/05 12:56:21;;;;;;;12.33;6.47;;;;;;;;;;5113521;28;20875;-74
2022/06/05 12:58:49;;;;;;;6.70;6.10;;;;;;;;;;5113320;28;20445;-75
2022/06/05 13:01:21;;;;;;;5.70;5.20;;;;;;;;;;5113234;28;20466;-74
2022/06/05 13:03:52;;;;;;;6.20;5.60;;;;;;;;;;5117448;28;20453;-74
2022/06/05 13:06:28;;;;;;;6.80;5.67;;;;;;;;;;5117703;28;20452;-74
2022/06/05 13:08:56;;;;;;;7.07;6.23;;;;;;;;;;5117727;28;20475;-74
2022/06/05 13:11:26;;;;;;;6.70;6.10;;;;;;;;;;5117265;28;20496;-74
2022/06/05 13:13:58;;;;;;;7.00;6.50;;;;;;;;;;5117270;28;20445;-74
2022/06/05 13:16:34;;;;;;;7.90;6.60;;;;;;;;;;5117354;28;20457;-74
2022/06/05 13:19:09;;;;;;;7.37;6.67;;;;;;;;;;5117401;27;20445;-74
2022/06/05 13:21:39;;;;;;;6.90;6.40;;;;;;;;;;5117374;28;20886;-74
2022/06/05 13:24:14;;;;;;;8.90;6.83;;;;;;;;;;5117079;28;20445;-74
2022/06/05 13:26:50;;;;;;;7.83;6.37;;;;;;;;;;5117338;28;20452;-74
2022/06/05 13:29:24;;;;;;;7.93;7.10;;;;;;;;;;5117147;28;20502;-74
2022/06/05 13:31:58;;;;;;;7.37;6.57;;;;;;;;;;5117040;28;20488;-74
2022/06/05 13:34:30;;;;;;;7.07;6.40;;;;;;;;;;5117155;27;20458;-74
2022/06/05 13:36:59;;;;;;;7.57;6.00;;;;;;;;;;5117260;28;20453;-74
2022/06/05 13:39:30;;;;;;;8.90;6.77;;;;;;;;;;5116977;27;20935;-74
2022/06/05 13:41:59;;;;;;;6.67;5.97;;;;;;;;;;5116783;28;20847;-74
2022/06/05 13:44:29;;;;;;;7.57;6.87;;;;;;;;;;5116749;28;20468;-74
2022/06/05 13:47:03;;;;;;;7.70;7.00;;;;;;;;;;5116863;28;20441;-74
2022/06/05 13:49:37;;;;;;;12.07;7.33;;;;;;;;;;5116832;28;20461;-74
2022/06/05 13:52:09;;;;;;;7.00;6.30;;;;;;;;;;5116335;28;20861;-74
2022/06/05 13:54:39;;;;;;;6.33;5.73;;;;;;;;;;5116481;28;20445;-74
2022/06/05 13:57:10;;;;;;;9.57;7.13;;;;;;;;;;5116619;28;20456;-74
2022/06/05 13:59:39;;;;;;;8.33;6.57;;;;;;;;;;5116618;28;20458;-74
2022/06/05 14:02:21;;;;;;;6.87;6.27;;;;;;;;;;5116374;28;20453;-74
2022/06/05 14:04:57;;;;;;;9.20;6.00;;;;;;;;;;5116404;28;20449;-74
2022/06/05 14:07:26;;;;;;;7.00;6.40;;;;;;;;;;5116307;28;20460;-74
2022/06/05 14:10:05;;;;;;;7.10;6.53;;;;;;;;;;5116589;28;20453;-75
2022/06/05 14:12:32;;;;;;;7.43;6.73;;;;;;;;;;5116375;28;20522;-74
2022/06/05 14:14:59;;;;;;;7.50;6.80;;;;;;;;;;5115382;28;20449;-74
2022/06/05 14:17:30;;;;;;;7.17;6.57;;;;;;;;;;5116269;28;20965;-75
2022/06/05 14:20:00;;;;;;;8.83;7.50;;;;;;;;;;5116088;28;20466;-75
2022/06/05 14:22:28;;;;;;;7.60;6.90;;;;;;;;;;5115989;28;20453;-74
2022/06/05 14:24:57;;;;;;;8.03;7.30;;;;;;;;;;5115899;28;20449;-74
2022/06/05 14:27:29;;;;;;;14.20;6.90;;;;;;;;;;5115933;28;20815;-74
2022/06/05 14:29:57;;;;;;;7.90;7.00;;;;;;;;;;5116063;27;20472;-75
2022/06/05 14:32:27;;;;;;;7.70;6.70;;;;;;;;;;5115847;28;20529;-74
2022/06/05 14:37:50;;;;;;;7.23;6.67;;;;;;;;;;5111292;27;21042;-73
2022/06/05 14:40:20;;;;;;;7.57;6.87;;;;;;;;;;5110818;28;20575;-73
2022/06/05 14:42:50;;;;;;;7.90;6.37;;;;;;;;;;5111001;28;20457;-73
2022/06/05 14:45:20;;;;;;;7.57;6.90;;;;;;;;;;5110641;28;20854;-73
2022/06/05 14:47:49;;;;;;;7.43;6.83;;;;;;;;;;5110903;28;20442;-73
2022/06/05 14:50:19;;;;;;;8.80;6.40;;;;;;;;;;5110597;28;20469;-74
2022/06/05 14:52:52;;;;;;;6.57;5.97;;;;;;;;;;5110488;28;20965;-73
2022/06/05 14:58:16;;;;;;;7.57;7.07;;;;;;;;;;5073866;28;20779;-73
2022/06/05 15:00:45;;;;;;;7.13;6.53;;;;;;;;;;5110478;28;20474;-73
2022/06/05 15:03:15;;;;;;;7.77;6.97;;;;;;;;;;5110534;28;20954;-73
2022/06/05 15:05:45;;;;;;;6.43;5.80;;;;;;;;;;5110302;28;20454;-73
2022/06/05 15:08:16;;;;;;;6.60;6.03;;;;;;;;;;5110293;28;20641;-73
2022/06/05 15:10:44;;;;;;;6.90;6.30;;;;;;;;;;5110372;28;20474;-73
2022/06/05 15:13:14;;;;;;;10.43;7.00;;;;;;;;;;5110405;28;20966;-73
2022/06/05 15:15:56;;;;;;;7.57;7.00;;;;;;;;;;5110135;28;20442;-73